Time;durP1;ratioP1;P1;durP2;ratioP2;P2;SDS_P1;SDS_P2;PMS_P1;PMS_P2;Temp;Humidity;BMP_temperature;BMP_pressure;BME280_temperature;BME280_humidity;BME280_pressure;Samples;Min_cycle;Max_cycle;Signal;HPM_P1;HPM_P2
2021/07/31 00:01:57;;;;;;;18.00;17.00;;;;;;;;;;5017074;28;20425;-91
2021/07/31 00:04:24;;;;;;;18.50;17.50;;;;;;;;;;5017379;28;20438;-90
2021/07/31 00:06:52;;;;;;;18.57;17.37;;;;;;;;;;5017247;28;20767;-90
2021/07/31 00:09:20;;;;;;;18.00;17.10;;;;;;;;;;5016729;28;20911;-89
2021/07/31 00:11:48;;;;;;;18.07;17.07;;;;;;;;;;5017441;28;20923;-90
2021/07/31 00:14:16;;;;;;;18.87;17.30;;;;;;;;;;5017127;28;20775;-90
2021/07/31 00:16:43;;;;;;;18.47;17.37;;;;;;;;;;5016814;28;20416;-90
2021/07/31 00:19:10;;;;;;;18.77;17.00;;;;;;;;;;5017432;28;20457;-90
2021/07/31 00:21:38;;;;;;;18.20;17.23;;;;;;;;;;5017260;28;20440;-90
2021/07/31 00:24:06;;;;;;;18.33;17.13;;;;;;;;;;5017009;28;20791;-89
2021/07/31 00:26:33;;;;;;;19.90;18.60;;;;;;;;;;5017093;28;20411;-90
2021/07/31 00:29:02;;;;;;;18.17;17.17;;;;;;;;;;5016732;28;20487;-90
2021/07/31 00:31:30;;;;;;;18.57;17.43;;;;;;;;;;5016963;28;20479;-90
2021/07/31 00:33:57;;;;;;;19.70;18.50;;;;;;;;;;5017346;28;20916;-90
2021/07/31 00:36:25;;;;;;;17.87;16.90;;;;;;;;;;5015780;28;20429;-90
2021/07/31 00:38:52;;;;;;;17.93;16.83;;;;;;;;;;5016662;28;20805;-90
2021/07/31 00:41:20;;;;;;;18.27;17.20;;;;;;;;;;5017081;28;20871;-90
2021/07/31 00:43:47;;;;;;;19.60;18.40;;;;;;;;;;4999701;28;20420;-90
2021/07/31 00:46:16;;;;;;;18.93;17.90;;;;;;;;;;5016463;28;20956;-90
2021/07/31 00:48:44;;;;;;;19.73;18.40;;;;;;;;;;5016164;28;20488;-90
2021/07/31 00:51:11;;;;;;;18.57;17.57;;;;;;;;;;5014161;28;20988;-90
2021/07/31 00:53:39;;;;;;;18.30;17.30;;;;;;;;;;5016119;28;20456;-90
2021/07/31 00:56:06;;;;;;;19.10;17.83;;;;;;;;;;5014892;28;20431;-90
2021/07/31 00:58:34;;;;;;;18.90;17.80;;;;;;;;;;5016083;28;20470;-90
2021/07/31 01:01:01;;;;;;;19.00;17.90;;;;;;;;;;5016244;28;20439;-90
2021/07/31 01:03:30;;;;;;;18.43;17.00;;;;;;;;;;5016339;28;20424;-90
2021/07/31 01:05:58;;;;;;;18.10;17.20;;;;;;;;;;5015939;28;20440;-90
2021/07/31 01:08:26;;;;;;;18.40;17.20;;;;;;;;;;5015726;28;20490;-90
2021/07/31 01:10:53;;;;;;;19.00;17.53;;;;;;;;;;5016561;28;20417;-90
2021/07/31 01:13:20;;;;;;;18.53;17.27;;;;;;;;;;5016358;28;20467;-90
2021/07/31 01:15:58;;;;;;;18.73;17.63;;;;;;;;;;5015744;28;20456;-90
2021/07/31 01:18:25;;;;;;;19.17;17.80;;;;;;;;;;5015780;28;20853;-90
2021/07/31 01:20:54;;;;;;;19.63;18.30;;;;;;;;;;5015828;28;20463;-90
2021/07/31 01:23:23;;;;;;;19.13;17.93;;;;;;;;;;5016059;28;20431;-90
2021/07/31 01:25:50;;;;;;;19.40;18.20;;;;;;;;;;5015755;28;20930;-90
2021/07/31 01:28:17;;;;;;;19.40;18.13;;;;;;;;;;5015412;28;20454;-90
2021/07/31 01:30:45;;;;;;;19.30;17.90;;;;;;;;;;5015821;28;20409;-90
2021/07/31 01:33:12;;;;;;;18.57;17.67;;;;;;;;;;5015589;28;20774;-90
2021/07/31 01:35:40;;;;;;;19.10;18.17;;;;;;;;;;5014430;28;20460;-90
2021/07/31 01:38:08;;;;;;;18.00;17.03;;;;;;;;;;5014746;28;20969;-89
2021/07/31 01:40:37;;;;;;;18.50;17.40;;;;;;;;;;5015373;28;20436;-90
2021/07/31 01:43:04;;;;;;;19.17;18.07;;;;;;;;;;5015195;28;20416;-90
2021/07/31 01:45:31;;;;;;;19.20;18.10;;;;;;;;;;5015367;28;20530;-90
2021/07/31 01:47:59;;;;;;;20.33;18.50;;;;;;;;;;5015285;28;20509;-89
2021/07/31 01:50:26;;;;;;;18.60;17.60;;;;;;;;;;5015159;28;20785;-90
2021/07/31 01:52:54;;;;;;;18.67;17.57;;;;;;;;;;5015188;28;20822;-90
2021/07/31 01:55:21;;;;;;;18.83;17.87;;;;;;;;;;5014918;28;20422;-90
2021/07/31 01:57:50;;;;;;;19.10;18.00;;;;;;;;;;5015189;28;20412;-90
2021/07/31 02:00:18;;;;;;;19.00;17.90;;;;;;;;;;5015112;28;20438;-90
2021/07/31 02:02:45;;;;;;;18.53;17.47;;;;;;;;;;5014971;28;20905;-90
2021/07/31 02:05:13;;;;;;;19.40;18.13;;;;;;;;;;5015088;28;20738;-90
2021/07/31 02:07:40;;;;;;;18.50;17.50;;;;;;;;;;5015577;28;20729;-90
2021/07/31 02:10:08;;;;;;;19.80;18.27;;;;;;;;;;5015278;28;20812;-90
2021/07/31 02:12:35;;;;;;;19.30;18.20;;;;;;;;;;5015277;28;20424;-90
2021/07/31 02:15:04;;;;;;;18.77;17.67;;;;;;;;;;5015059;28;20432;-90
2021/07/31 02:17:33;;;;;;;19.13;17.77;;;;;;;;;;5015035;28;20841;-90
2021/07/31 02:20:00;;;;;;;18.33;17.30;;;;;;;;;;5014800;28;20907;-90
2021/07/31 02:22:28;;;;;;;19.47;18.13;;;;;;;;;;5014524;28;20441;-90
2021/07/31 02:24:55;;;;;;;19.10;17.40;;;;;;;;;;5014954;28;20889;-90
2021/07/31 02:27:22;;;;;;;18.87;17.50;;;;;;;;;;5014767;28;20498;-89
2021/07/31 02:29:50;;;;;;;19.23;18.13;;;;;;;;;;5014636;28;20794;-90
2021/07/31 02:32:19;;;;;;;18.73;17.57;;;;;;;;;;5014812;28;20417;-90
2021/07/31 02:34:46;;;;;;;18.87;17.73;;;;;;;;;;5014470;28;20437;-90
2021/07/31 02:37:13;;;;;;;18.67;17.67;;;;;;;;;;5014423;28;20459;-90
2021/07/31 02:39:41;;;;;;;19.07;17.77;;;;;;;;;;5013642;28;20495;-89
2021/07/31 02:42:08;;;;;;;18.27;17.37;;;;;;;;;;5014782;28;20417;-90
2021/07/31 02:44:36;;;;;;;19.00;17.97;;;;;;;;;;5014360;28;20459;-90
2021/07/31 02:47:04;;;;;;;18.50;17.40;;;;;;;;;;5014596;28;20901;-89
2021/07/31 02:49:32;;;;;;;18.43;17.40;;;;;;;;;;5014260;28;20507;-90
2021/07/31 02:52:00;;;;;;;19.10;18.00;;;;;;;;;;5014900;28;20452;-89
2021/07/31 02:54:27;;;;;;;19.97;18.60;;;;;;;;;;5014305;28;20454;-90
2021/07/31 02:56:55;;;;;;;18.43;17.33;;;;;;;;;;5013250;28;20452;-90
2021/07/31 02:59:22;;;;;;;19.10;17.80;;;;;;;;;;5014778;28;20458;-90
2021/07/31 03:01:49;;;;;;;19.30;18.20;;;;;;;;;;5014374;28;20461;-89
2021/07/31 03:04:17;;;;;;;18.70;17.80;;;;;;;;;;5014249;28;20449;-89
2021/07/31 03:06:46;;;;;;;18.80;17.77;;;;;;;;;;5014442;28;20806;-89
2021/07/31 03:09:14;;;;;;;19.20;17.80;;;;;;;;;;5014220;28;20460;-88
2021/07/31 03:11:41;;;;;;;19.60;18.40;;;;;;;;;;5014545;28;20433;-90
2021/07/31 03:14:08;;;;;;;19.67;18.40;;;;;;;;;;5014829;28;20426;-89
2021/07/31 03:16:36;;;;;;;19.27;18.07;;;;;;;;;;5017221;28;20470;-89
2021/07/31 03:19:03;;;;;;;19.63;18.40;;;;;;;;;;5017918;28;20445;-89
2021/07/31 03:21:31;;;;;;;19.13;18.13;;;;;;;;;;5018165;28;20416;-89
2021/07/31 03:24:00;;;;;;;19.37;18.17;;;;;;;;;;5018117;28;20445;-89
2021/07/31 03:26:27;;;;;;;19.87;18.57;;;;;;;;;;5017678;28;20425;-89
2021/07/31 03:28:55;;;;;;;19.27;18.17;;;;;;;;;;5017597;28;20488;-89
2021/07/31 03:31:23;;;;;;;19.57;18.47;;;;;;;;;;5017925;28;20457;-90
2021/07/31 03:33:50;;;;;;;18.80;17.80;;;;;;;;;;5017642;28;20943;-90
2021/07/31 03:36:18;;;;;;;19.20;18.00;;;;;;;;;;5017700;28;20916;-90
2021/07/31 03:38:45;;;;;;;19.00;17.90;;;;;;;;;;5017568;28;20430;-90
2021/07/31 03:41:14;;;;;;;18.90;17.80;;;;;;;;;;5016975;28;20503;-90
2021/07/31 03:43:42;;;;;;;19.50;18.40;;;;;;;;;;5017655;28;20436;-89
2021/07/31 03:46:09;;;;;;;18.27;17.37;;;;;;;;;;5017601;28;20447;-89
2021/07/31 03:48:37;;;;;;;18.50;17.40;;;;;;;;;;5017604;28;20459;-90
2021/07/31 03:51:04;;;;;;;19.43;18.17;;;;;;;;;;5017163;28;20476;-90
2021/07/31 03:53:32;;;;;;;18.30;17.30;;;;;;;;;;5017517;28;20445;-89
2021/07/31 03:55:59;;;;;;;19.60;18.13;;;;;;;;;;5017268;28;20434;-89
2021/07/31 03:58:28;;;;;;;19.90;18.80;;;;;;;;;;5017345;28;20424;-90
2021/07/31 04:00:55;;;;;;;19.17;18.17;;;;;;;;;;5016418;28;20421;-90
2021/07/31 04:03:23;;;;;;;20.10;19.00;;;;;;;;;;5017212;28;20431;-89
2021/07/31 04:05:50;;;;;;;19.57;18.50;;;;;;;;;;5017076;28;20900;-90
2021/07/31 04:08:18;;;;;;;19.57;18.17;;;;;;;;;;5017311;28;20419;-90
2021/07/31 04:10:45;;;;;;;18.90;17.80;;;;;;;;;;5016983;28;20417;-90
2021/07/31 04:13:12;;;;;;;19.23;18.03;;;;;;;;;;5016861;28;20424;-90
2021/07/31 04:15:43;;;;;;;19.10;17.87;;;;;;;;;;5017166;28;20422;-90
2021/07/31 04:18:11;;;;;;;20.07;18.77;;;;;;;;;;5017153;28;20408;-90
2021/07/31 04:20:38;;;;;;;19.07;17.83;;;;;;;;;;5015736;28;20420;-83
2021/07/31 04:23:05;;;;;;;19.40;18.20;;;;;;;;;;5016476;28;20440;-83
2021/07/31 04:25:35;;;;;;;19.70;18.50;;;;;;;;;;5016295;28;20423;-83
2021/07/31 04:28:03;;;;;;;18.87;17.77;;;;;;;;;;5016481;28;20935;-92
2021/07/31 04:30:31;;;;;;;19.83;18.53;;;;;;;;;;5017058;28;20460;-91
2021/07/31 04:33:00;;;;;;;19.57;17.90;;;;;;;;;;5016352;28;20458;-85
2021/07/31 04:35:27;;;;;;;19.67;18.23;;;;;;;;;;5016329;28;20407;-82
2021/07/31 04:37:55;;;;;;;18.87;17.87;;;;;;;;;;5016233;28;20413;-82
2021/07/31 04:40:22;;;;;;;19.07;17.90;;;;;;;;;;5016388;28;20454;-91
2021/07/31 04:42:50;;;;;;;18.83;17.73;;;;;;;;;;5016722;28;20421;-91
2021/07/31 04:45:17;;;;;;;19.60;18.30;;;;;;;;;;5015845;28;20504;-91
2021/07/31 04:47:45;;;;;;;19.70;18.27;;;;;;;;;;5016323;28;20419;-83
2021/07/31 04:50:15;;;;;;;19.00;17.97;;;;;;;;;;5015472;28;20509;-82
2021/07/31 04:52:42;;;;;;;18.90;17.83;;;;;;;;;;5016040;28;20413;-84
2021/07/31 04:55:10;;;;;;;19.80;18.60;;;;;;;;;;5016223;28;20419;-90
2021/07/31 04:57:37;;;;;;;20.43;19.13;;;;;;;;;;5016077;28;20811;-89
2021/07/31 05:00:05;;;;;;;19.87;18.57;;;;;;;;;;5015787;28;20432;-83
2021/07/31 05:02:33;;;;;;;20.30;18.47;;;;;;;;;;5015791;28;20412;-82
2021/07/31 05:05:01;;;;;;;19.83;18.33;;;;;;;;;;5014463;28;20521;-82
2021/07/31 05:07:30;;;;;;;18.93;17.93;;;;;;;;;;5016122;28;20461;-89
2021/07/31 05:09:57;;;;;;;18.50;17.50;;;;;;;;;;5014687;28;20461;-89
2021/07/31 05:12:25;;;;;;;19.70;18.10;;;;;;;;;;5016031;28;20425;-83
2021/07/31 05:14:52;;;;;;;19.30;18.30;;;;;;;;;;5015862;28;20427;-83
2021/07/31 05:17:20;;;;;;;18.87;17.67;;;;;;;;;;5015516;28;20788;-83
2021/07/31 05:19:48;;;;;;;19.10;17.67;;;;;;;;;;5015612;28;20488;-90
2021/07/31 05:22:16;;;;;;;18.63;17.40;;;;;;;;;;5016014;28;20889;-88
2021/07/31 05:24:44;;;;;;;19.17;18.07;;;;;;;;;;5016211;28;20838;-87
2021/07/31 05:27:12;;;;;;;19.20;17.97;;;;;;;;;;5014914;28;20454;-83
2021/07/31 05:29:39;;;;;;;18.30;17.40;;;;;;;;;;5015059;28;20935;-82
2021/07/31 05:32:07;;;;;;;17.67;16.67;;;;;;;;;;5014981;28;20446;-83
2021/07/31 05:34:34;;;;;;;18.67;17.50;;;;;;;;;;5015117;28;20447;-82
2021/07/31 05:37:01;;;;;;;19.87;18.63;;;;;;;;;;5014779;28;20417;-82
2021/07/31 05:39:33;;;;;;;18.57;17.67;;;;;;;;;;5015081;28;20765;-83
2021/07/31 05:42:02;;;;;;;20.10;18.80;;;;;;;;;;5014774;28;20941;-82
2021/07/31 05:44:29;;;;;;;20.13;19.13;;;;;;;;;;5014901;28;20478;-83
2021/07/31 05:46:57;;;;;;;21.17;19.67;;;;;;;;;;5014783;28;20442;-83
2021/07/31 05:49:25;;;;;;;19.80;18.57;;;;;;;;;;5014519;28;20849;-82
2021/07/31 05:51:52;;;;;;;20.57;19.37;;;;;;;;;;5014993;28;20879;-82
2021/07/31 05:54:19;;;;;;;21.60;20.30;;;;;;;;;;5014629;28;20411;-82
2021/07/31 05:56:49;;;;;;;21.13;19.97;;;;;;;;;;5014282;28;20420;-82
2021/07/31 05:59:18;;;;;;;20.00;19.00;;;;;;;;;;5014463;28;20444;-82
2021/07/31 06:01:45;;;;;;;19.37;18.47;;;;;;;;;;5014469;28;20409;-82
2021/07/31 06:04:13;;;;;;;19.37;18.00;;;;;;;;;;5014601;28;20495;-82
2021/07/31 06:06:40;;;;;;;18.43;17.43;;;;;;;;;;5013231;28;21030;-80
2021/07/31 06:09:07;;;;;;;19.40;18.30;;;;;;;;;;5014381;28;20453;-82
2021/07/31 06:11:35;;;;;;;18.93;17.70;;;;;;;;;;5014210;28;20419;-82
2021/07/31 06:14:02;;;;;;;19.30;18.20;;;;;;;;;;5014518;28;20412;-82
2021/07/31 06:16:31;;;;;;;18.70;17.43;;;;;;;;;;5015076;28;20426;-91
2021/07/31 06:18:59;;;;;;;17.80;16.90;;;;;;;;;;5014775;28;20436;-88
2021/07/31 06:21:26;;;;;;;19.50;18.23;;;;;;;;;;5014854;28;20420;-86
2021/07/31 06:23:53;;;;;;;20.83;19.47;;;;;;;;;;5015277;28;20448;-89
2021/07/31 06:26:21;;;;;;;20.03;18.83;;;;;;;;;;5015151;28;20446;-91
2021/07/31 06:28:48;;;;;;;19.57;18.37;;;;;;;;;;5015402;28;20416;-88
2021/07/31 06:31:16;;;;;;;20.37;19.07;;;;;;;;;;5014822;28;20468;-85
2021/07/31 06:33:45;;;;;;;20.90;19.90;;;;;;;;;;5016691;28;20426;-86
2021/07/31 06:36:12;;;;;;;20.10;18.80;;;;;;;;;;5015648;28;20426;-85
2021/07/31 06:38:39;;;;;;;19.37;18.37;;;;;;;;;;5016762;28;20405;-88
2021/07/31 06:41:07;;;;;;;21.70;20.00;;;;;;;;;;5015657;28;20409;-89
2021/07/31 06:43:34;;;;;;;20.63;19.33;;;;;;;;;;5016115;28;20535;-89
2021/07/31 06:46:10;;;;;;;19.50;18.50;;;;;;;;;;5014292;28;20432;-86
2021/07/31 06:48:37;;;;;;;20.00;19.00;;;;;;;;;;5015060;28;20442;-88
2021/07/31 06:51:06;;;;;;;19.70;18.70;;;;;;;;;;5018311;28;20511;-88
2021/07/31 06:53:34;;;;;;;20.37;19.20;;;;;;;;;;5018412;28;20925;-90
2021/07/31 06:56:01;;;;;;;20.77;19.60;;;;;;;;;;5018319;28;20417;-89
2021/07/31 06:58:29;;;;;;;19.73;18.63;;;;;;;;;;5018940;28;20774;-88
2021/07/31 07:00:56;;;;;;;19.37;18.47;;;;;;;;;;5018368;28;20415;-86
2021/07/31 07:03:24;;;;;;;19.63;18.33;;;;;;;;;;5018181;28;20902;-89
2021/07/31 07:05:51;;;;;;;20.30;18.73;;;;;;;;;;5018351;28;20420;-87
2021/07/31 07:08:22;;;;;;;19.80;18.60;;;;;;;;;;5017930;28;20999;-86
2021/07/31 07:10:51;;;;;;;20.33;19.20;;;;;;;;;;5018161;28;20975;-84
2021/07/31 07:13:19;;;;;;;20.83;19.23;;;;;;;;;;5018324;28;20513;-87
2021/07/31 07:15:46;;;;;;;19.67;18.67;;;;;;;;;;5018382;28;20450;-87
2021/07/31 07:18:13;;;;;;;19.23;18.13;;;;;;;;;;5018472;28;20413;-90
2021/07/31 07:20:41;;;;;;;19.57;18.37;;;;;;;;;;4998571;28;20813;-91
2021/07/31 07:23:08;;;;;;;20.20;19.00;;;;;;;;;;5015415;28;20416;-87
2021/07/31 07:25:38;;;;;;;19.47;18.00;;;;;;;;;;5017665;28;20412;-86
2021/07/31 07:28:07;;;;;;;20.50;19.10;;;;;;;;;;5017874;28;20445;-86
2021/07/31 07:30:34;;;;;;;20.90;19.70;;;;;;;;;;5017539;28;20458;-87
2021/07/31 07:33:03;;;;;;;19.40;18.37;;;;;;;;;;5016595;28;20445;-87
2021/07/31 07:35:30;;;;;;;19.80;18.90;;;;;;;;;;4998032;28;20416;-88
2021/07/31 07:37:57;;;;;;;21.40;20.30;;;;;;;;;;4998063;28;20456;-88
2021/07/31 07:40:25;;;;;;;19.87;18.67;;;;;;;;;;4998151;28;20408;-84
2021/07/31 07:42:54;;;;;;;20.37;19.17;;;;;;;;;;4998084;28;20437;-84
2021/07/31 07:45:21;;;;;;;20.30;19.07;;;;;;;;;;4997958;28;20442;-85
2021/07/31 07:47:48;;;;;;;20.63;18.73;;;;;;;;;;4997548;28;20441;-85
2021/07/31 07:50:16;;;;;;;20.93;19.30;;;;;;;;;;4997318;28;20995;-83
2021/07/31 07:52:43;;;;;;;20.07;18.87;;;;;;;;;;4997464;28;20441;-85
2021/07/31 07:55:11;;;;;;;20.53;19.33;;;;;;;;;;4997675;28;20452;-85
2021/07/31 07:57:40;;;;;;;19.67;18.67;;;;;;;;;;4997377;28;20925;-84
2021/07/31 08:00:10;;;;;;;20.47;19.40;;;;;;;;;;4997079;28;20556;-84
2021/07/31 08:02:37;;;;;;;19.93;18.83;;;;;;;;;;4997230;28;20418;-84
2021/07/31 08:05:05;;;;;;;20.60;19.50;;;;;;;;;;4997281;28;20421;-85
2021/07/31 08:07:32;;;;;;;21.00;19.67;;;;;;;;;;4997372;28;20416;-84
2021/07/31 08:10:00;;;;;;;20.50;19.30;;;;;;;;;;4997311;28;20478;-83
2021/07/31 08:12:27;;;;;;;20.50;19.50;;;;;;;;;;4997213;28;20413;-86
2021/07/31 08:14:55;;;;;;;20.10;18.80;;;;;;;;;;4997109;28;20440;-84
2021/07/31 08:17:23;;;;;;;20.90;19.70;;;;;;;;;;4996999;28;20428;-83
2021/07/31 08:19:51;;;;;;;20.90;19.80;;;;;;;;;;5009841;28;20433;-83
2021/07/31 08:22:18;;;;;;;20.13;19.03;;;;;;;;;;5016569;28;20822;-83
2021/07/31 08:24:47;;;;;;;20.97;19.70;;;;;;;;;;5016860;28;20408;-84
2021/07/31 08:27:14;;;;;;;20.87;19.57;;;;;;;;;;5016260;28;20419;-84
2021/07/31 08:29:42;;;;;;;21.53;20.33;;;;;;;;;;5016497;28;20457;-85
2021/07/31 08:32:09;;;;;;;20.03;18.90;;;;;;;;;;5016623;28;20777;-85
2021/07/31 08:34:38;;;;;;;20.57;19.27;;;;;;;;;;5015316;28;20451;-85
2021/07/31 08:37:06;;;;;;;21.17;19.67;;;;;;;;;;5016783;28;20903;-85
2021/07/31 08:39:33;;;;;;;20.57;19.43;;;;;;;;;;5016484;28;20417;-85
2021/07/31 08:42:00;;;;;;;20.73;19.50;;;;;;;;;;5016612;28;20419;-83
2021/07/31 08:44:28;;;;;;;20.67;19.57;;;;;;;;;;5016580;28;20450;-85
2021/07/31 08:46:55;;;;;;;22.27;20.60;;;;;;;;;;5016522;28;20441;-86
2021/07/31 08:49:24;;;;;;;20.93;19.80;;;;;;;;;;5016103;28;20464;-85
2021/07/31 08:51:53;;;;;;;21.97;20.67;;;;;;;;;;5015851;28;20471;-85
2021/07/31 08:54:20;;;;;;;19.60;18.57;;;;;;;;;;5016342;28;20412;-85
2021/07/31 08:56:48;;;;;;;21.90;20.50;;;;;;;;;;5016270;28;20436;-90
2021/07/31 08:59:15;;;;;;;21.63;20.40;;;;;;;;;;5016298;28;20416;-85
2021/07/31 09:01:43;;;;;;;20.37;19.37;;;;;;;;;;5015412;28;20450;-85
2021/07/31 09:04:12;;;;;;;20.80;19.67;;;;;;;;;;5016061;28;20439;-89
2021/07/31 09:06:39;;;;;;;20.20;19.17;;;;;;;;;;5016042;28;20414;-85
2021/07/31 09:09:08;;;;;;;22.00;20.70;;;;;;;;;;5015637;28;20457;-85
2021/07/31 09:11:36;;;;;;;21.87;20.37;;;;;;;;;;5014881;28;20482;-86
2021/07/31 09:14:10;;;;;;;21.43;20.13;;;;;;;;;;5015666;28;20447;-85
2021/07/31 09:16:38;;;;;;;20.27;19.17;;;;;;;;;;5016460;28;20821;-83
2021/07/31 09:19:06;;;;;;;21.80;20.67;;;;;;;;;;5014250;28;20431;-83
2021/07/31 09:21:33;;;;;;;20.17;19.03;;;;;;;;;;5015630;28;20915;-83
2021/07/31 09:24:01;;;;;;;19.90;18.80;;;;;;;;;;5015314;28;20767;-83
2021/07/31 09:26:35;;;;;;;21.00;19.30;;;;;;;;;;5015222;28;20420;-84
2021/07/31 09:29:03;;;;;;;20.47;19.37;;;;;;;;;;5015170;28;20446;-84
2021/07/31 09:31:31;;;;;;;19.37;18.10;;;;;;;;;;5015367;28;20819;-84
2021/07/31 09:34:00;;;;;;;19.90;18.70;;;;;;;;;;5015159;28;20411;-83
2021/07/31 09:36:36;;;;;;;20.67;19.53;;;;;;;;;;5015334;28;20434;-83
2021/07/31 09:39:04;;;;;;;19.73;18.60;;;;;;;;;;5014110;28;20455;-84
2021/07/31 09:41:36;;;;;;;20.30;19.10;;;;;;;;;;5015231;28;20442;-84
2021/07/31 09:44:07;;;;;;;19.90;18.80;;;;;;;;;;5014912;28;20459;-83
2021/07/31 09:46:35;;;;;;;20.00;18.70;;;;;;;;;;5015060;28;20447;-83
2021/07/31 09:49:03;;;;;;;21.50;20.30;;;;;;;;;;5013730;28;20458;-83
2021/07/31 09:51:34;;;;;;;20.70;19.50;;;;;;;;;;5015348;28;20464;-84
2021/07/31 09:54:02;;;;;;;21.10;19.70;;;;;;;;;;5014731;28;20453;-84
2021/07/31 09:56:32;;;;;;;20.70;19.60;;;;;;;;;;5014559;28;20452;-83
2021/07/31 09:59:01;;;;;;;23.40;22.10;;;;;;;;;;5014528;28;20924;-84
2021/07/31 10:01:31;;;;;;;20.97;19.77;;;;;;;;;;5014697;28;20436;-84
2021/07/31 10:03:58;;;;;;;21.60;20.30;;;;;;;;;;5014963;28;20442;-84
2021/07/31 10:06:27;;;;;;;19.63;18.47;;;;;;;;;;5014592;28;20919;-84
2021/07/31 10:08:54;;;;;;;20.80;19.60;;;;;;;;;;5014721;28;20452;-84
2021/07/31 10:11:22;;;;;;;20.00;19.00;;;;;;;;;;5014432;28;20465;-85
2021/07/31 10:13:49;;;;;;;19.83;18.63;;;;;;;;;;5015034;28;20413;-83
2021/07/31 10:16:18;;;;;;;20.13;18.67;;;;;;;;;;5015073;28;20416;-84
2021/07/31 10:18:58;;;;;;;19.80;18.67;;;;;;;;;;5014569;28;20466;-84
2021/07/31 10:21:26;;;;;;;19.60;18.40;;;;;;;;;;5014411;28;20443;-84
2021/07/31 10:24:04;;;;;;;20.33;19.23;;;;;;;;;;5014551;28;20415;-83
2021/07/31 10:26:33;;;;;;;20.47;19.27;;;;;;;;;;5014214;28;20878;-84
2021/07/31 10:29:15;;;;;;;20.40;19.30;;;;;;;;;;5014492;28;20515;-84
2021/07/31 10:31:44;;;;;;;19.60;18.50;;;;;;;;;;5014082;28;20473;-85
2021/07/31 10:34:11;;;;;;;20.40;19.37;;;;;;;;;;5012437;28;20433;-84
2021/07/31 10:36:39;;;;;;;20.57;19.30;;;;;;;;;;5014451;28;20428;-84
2021/07/31 10:39:21;;;;;;;19.23;18.03;;;;;;;;;;5014498;28;20474;-84
2021/07/31 10:41:56;;;;;;;19.83;18.83;;;;;;;;;;5014033;28;20429;-94
2021/07/31 10:44:24;;;;;;;22.03;20.70;;;;;;;;;;5013305;28;20529;-83
2021/07/31 10:47:13;;;;;;;19.20;18.07;;;;;;;;;;5014233;28;20416;-82
2021/07/31 10:49:40;;;;;;;20.20;19.10;;;;;;;;;;5015365;28;20841;-84
2021/07/31 10:52:07;;;;;;;21.07;19.83;;;;;;;;;;5015851;28;20470;-84
2021/07/31 10:54:53;;;;;;;20.77;19.50;;;;;;;;;;5017367;28;20462;-88
2021/07/31 10:57:21;;;;;;;19.27;18.17;;;;;;;;;;5015593;28;20409;-88
2021/07/31 11:00:03;;;;;;;21.57;20.30;;;;;;;;;;5014867;28;20441;-88
2021/07/31 11:02:36;;;;;;;18.63;17.73;;;;;;;;;;5014317;28;20829;-91
2021/07/31 11:05:04;;;;;;;20.10;19.00;;;;;;;;;;5014027;28;20452;-83
2021/07/31 11:07:31;;;;;;;20.63;19.53;;;;;;;;;;5013793;28;20463;-82
2021/07/31 11:10:17;;;;;;;19.93;18.83;;;;;;;;;;5014242;28;20446;-93
2021/07/31 11:12:44;;;;;;;19.70;18.70;;;;;;;;;;5015548;28;20494;-88
2021/07/31 11:15:12;;;;;;;19.07;17.97;;;;;;;;;;5015890;28;20559;-93
2021/07/31 11:17:41;;;;;;;20.20;19.13;;;;;;;;;;5016202;28;20443;-92
2021/07/31 11:20:35;;;;;;;20.57;19.43;;;;;;;;;;5015011;28;20463;-93
2021/07/31 11:23:10;;;;;;;20.37;19.00;;;;;;;;;;4975070;28;20426;-92
2021/07/31 11:25:38;;;;;;;20.17;19.10;;;;;;;;;;4974142;28;20418;-92
2021/07/31 11:28:09;;;;;;;19.87;18.67;;;;;;;;;;4973476;28;20474;-84
2021/07/31 11:30:43;;;;;;;19.13;18.13;;;;;;;;;;4972539;28;20536;-83
2021/07/31 11:33:29;;;;;;;20.07;18.83;;;;;;;;;;4972753;28;20455;-84
2021/07/31 11:35:58;;;;;;;19.77;18.77;;;;;;;;;;4975441;28;20435;-83
2021/07/31 11:38:34;;;;;;;21.10;20.00;;;;;;;;;;4976401;28;20416;-83
2021/07/31 11:41:02;;;;;;;20.90;19.73;;;;;;;;;;4976293;28;20482;-83
2021/07/31 11:43:29;;;;;;;20.57;19.47;;;;;;;;;;4976136;28;20491;-84
2021/07/31 11:45:57;;;;;;;20.67;19.47;;;;;;;;;;4976282;28;20452;-83
2021/07/31 11:48:24;;;;;;;21.50;20.30;;;;;;;;;;4976343;28;20447;-84
2021/07/31 11:51:06;;;;;;;22.17;20.97;;;;;;;;;;4976068;28;20479;-84
2021/07/31 11:53:34;;;;;;;22.07;20.67;;;;;;;;;;4976153;28;20477;-84
2021/07/31 11:56:14;;;;;;;22.43;21.03;;;;;;;;;;4960236;28;20448;-84
2021/07/31 11:58:42;;;;;;;20.27;19.03;;;;;;;;;;4994685;28;20446;-84
2021/07/31 12:01:10;;;;;;;21.07;19.93;;;;;;;;;;5017187;28;20452;-85
2021/07/31 12:03:41;;;;;;;21.20;19.97;;;;;;;;;;5016296;28;20852;-85
2021/07/31 12:06:23;;;;;;;20.87;19.50;;;;;;;;;;5017971;28;20417;-84
2021/07/31 12:08:52;;;;;;;20.30;19.20;;;;;;;;;;5016861;28;20454;-85
2021/07/31 12:11:31;;;;;;;21.03;19.73;;;;;;;;;;5017171;28;20464;-84
2021/07/31 12:13:58;;;;;;;20.70;19.60;;;;;;;;;;5016620;28;20414;-84
2021/07/31 12:16:29;;;;;;;21.20;20.00;;;;;;;;;;5016578;28;20421;-84
2021/07/31 12:18:56;;;;;;;21.27;20.07;;;;;;;;;;5015404;28;20985;-84
2021/07/31 12:21:24;;;;;;;22.10;20.60;;;;;;;;;;5016790;28;20420;-84
2021/07/31 12:23:53;;;;;;;20.70;19.30;;;;;;;;;;5016503;28;20417;-83
2021/07/31 12:26:30;;;;;;;20.83;19.40;;;;;;;;;;5016323;28;20456;-84
2021/07/31 12:28:58;;;;;;;20.77;19.57;;;;;;;;;;5016359;28;20924;-84
2021/07/31 12:31:26;;;;;;;21.30;20.00;;;;;;;;;;5016287;28;20513;-84
2021/07/31 12:33:53;;;;;;;21.20;19.90;;;;;;;;;;5016326;28;20418;-84
2021/07/31 12:36:20;;;;;;;20.70;19.40;;;;;;;;;;5016683;28;20431;-84
2021/07/31 12:38:48;;;;;;;20.20;19.00;;;;;;;;;;5016147;28;20416;-84
2021/07/31 12:41:17;;;;;;;20.83;19.63;;;;;;;;;;5016543;28;20450;-83
2021/07/31 12:43:44;;;;;;;21.00;19.80;;;;;;;;;;5015370;28;20437;-83
2021/07/31 12:46:12;;;;;;;20.77;19.67;;;;;;;;;;5014571;28;20482;-83
2021/07/31 12:48:39;;;;;;;21.20;19.90;;;;;;;;;;5015577;28;20459;-83
2021/07/31 12:51:07;;;;;;;20.27;19.17;;;;;;;;;;5015269;28;20480;-83
2021/07/31 12:53:34;;;;;;;20.80;19.60;;;;;;;;;;5015561;28;20819;-83
2021/07/31 12:56:02;;;;;;;20.93;19.53;;;;;;;;;;5015217;28;20496;-83
2021/07/31 12:58:30;;;;;;;22.43;20.90;;;;;;;;;;5007381;28;20441;-83
2021/07/31 13:00:58;;;;;;;21.00;19.90;;;;;;;;;;5014938;28;20435;-84
2021/07/31 13:03:25;;;;;;;20.50;19.50;;;;;;;;;;5015313;28;20408;-83
2021/07/31 13:05:52;;;;;;;20.37;19.27;;;;;;;;;;5013135;28;20622;-83
2021/07/31 13:08:20;;;;;;;20.77;19.57;;;;;;;;;;5015185;28;20731;-84
2021/07/31 13:10:49;;;;;;;22.43;20.47;;;;;;;;;;5015287;28;20883;-84
2021/07/31 13:13:18;;;;;;;21.40;20.10;;;;;;;;;;5015757;28;20488;-84
2021/07/31 13:15:47;;;;;;;21.47;20.07;;;;;;;;;;5015240;28;20436;-83
2021/07/31 13:18:19;;;;;;;22.07;20.87;;;;;;;;;;5014981;28;20455;-84
2021/07/31 13:20:47;;;;;;;22.00;20.70;;;;;;;;;;5013113;28;20499;-84
2021/07/31 13:23:14;;;;;;;21.60;20.50;;;;;;;;;;5014966;28;20424;-83
2021/07/31 13:25:41;;;;;;;20.93;19.83;;;;;;;;;;5012521;28;20402;-84
2021/07/31 13:28:09;;;;;;;20.13;19.10;;;;;;;;;;5014456;28;20468;-84
2021/07/31 13:30:37;;;;;;;21.23;20.00;;;;;;;;;;5015277;28;20420;-85
2021/07/31 13:33:06;;;;;;;21.50;20.20;;;;;;;;;;5015154;28;20882;-84
2021/07/31 13:35:34;;;;;;;20.73;19.53;;;;;;;;;;5015398;28;20446;-84
2021/07/31 13:38:01;;;;;;;20.70;19.50;;;;;;;;;;5015341;28;20472;-85
2021/07/31 13:40:35;;;;;;;21.20;20.00;;;;;;;;;;5014994;28;20456;-84
2021/07/31 13:43:03;;;;;;;21.47;20.10;;;;;;;;;;5015465;28;21010;-85
2021/07/31 13:45:30;;;;;;;20.90;19.70;;;;;;;;;;5015332;28;20417;-85
2021/07/31 13:47:58;;;;;;;20.53;19.37;;;;;;;;;;5015440;28;20413;-84
2021/07/31 13:50:26;;;;;;;20.50;19.40;;;;;;;;;;5014893;28;20484;-84
2021/07/31 13:52:54;;;;;;;20.30;19.20;;;;;;;;;;5015076;28;20868;-85
2021/07/31 13:55:21;;;;;;;19.67;18.60;;;;;;;;;;5014963;28;20450;-84
2021/07/31 13:57:48;;;;;;;21.00;19.83;;;;;;;;;;5011127;28;20440;-83
2021/07/31 14:00:16;;;;;;;21.80;20.50;;;;;;;;;;5012869;28;20446;-84
2021/07/31 14:02:44;;;;;;;21.30;20.20;;;;;;;;;;5014640;28;20481;-84
2021/07/31 14:05:14;;;;;;;21.67;20.20;;;;;;;;;;5014700;28;20414;-84
2021/07/31 14:07:43;;;;;;;22.60;21.00;;;;;;;;;;5014582;28;20481;-84
2021/07/31 14:10:11;;;;;;;21.40;20.17;;;;;;;;;;5014632;28;20440;-82
2021/07/31 14:12:38;;;;;;;21.30;20.10;;;;;;;;;;5014323;28;20458;-84
2021/07/31 14:15:06;;;;;;;20.53;19.40;;;;;;;;;;5015095;28;20434;-84
2021/07/31 14:17:34;;;;;;;21.10;19.70;;;;;;;;;;5014899;28;20426;-84
2021/07/31 14:20:01;;;;;;;22.47;21.37;;;;;;;;;;5014798;28;20911;-85
2021/07/31 14:22:28;;;;;;;22.83;21.30;;;;;;;;;;5014714;28;20436;-84
2021/07/31 14:24:57;;;;;;;22.67;21.47;;;;;;;;;;5014471;28;20413;-85